Time;durP1;ratioP1;P1;durP2;ratioP2;P2;SDS_P1;SDS_P2;PMS_P1;PMS_P2;Temp;Humidity;BMP_temperature;BMP_pressure;BME280_temperature;BME280_humidity;BME280_pressure;Samples;Min_cycle;Max_cycle;Signal;HPM_P1;HPM_P2
2022/10/25 03:01:20;;;;;;;37.63;14.77;;;12.80;99.90;;;;;;6282033;22;20351;-76
2022/10/25 03:03:46;;;;;;;36.00;15.13;;;12.80;99.90;;;;;;6312545;22;20014;-78
2022/10/25 03:06:12;;;;;;;36.67;14.88;;;12.80;99.90;;;;;;6312387;22;20015;-81
2022/10/25 03:08:39;;;;;;;37.72;14.68;;;12.70;99.90;;;;;;6312460;22;20482;-79
2022/10/25 03:11:05;;;;;;;44.50;15.30;;;12.70;99.90;;;;;;6312230;22;20022;-80
2022/10/25 03:13:31;;;;;;;40.47;14.88;;;12.70;99.90;;;;;;6286601;22;20052;-77
2022/10/25 03:15:57;;;;;;;43.30;15.48;;;12.70;99.90;;;;;;6340354;22;20014;-78
2022/10/25 03:18:23;;;;;;;46.15;15.23;;;12.60;99.90;;;;;;6312172;22;20019;-77
2022/10/25 03:20:48;;;;;;;34.33;14.23;;;12.60;99.90;;;;;;6339493;22;20010;-79
2022/10/25 03:23:14;;;;;;;36.92;14.75;;;12.60;99.90;;;;;;6312055;22;20095;-81
2022/10/25 03:25:40;;;;;;;33.83;13.82;;;12.50;99.90;;;;;;6340358;22;20050;-77
2022/10/25 03:28:06;;;;;;;38.53;13.65;;;12.60;99.90;;;;;;6339898;22;20496;-80
2022/10/25 03:30:32;;;;;;;44.28;15.50;;;12.60;99.90;;;;;;6286445;22;20018;-78
2022/10/25 03:32:58;;;;;;;39.25;14.55;;;12.60;99.90;;;;;;6340140;22;20107;-79
2022/10/25 03:35:25;;;;;;;42.17;14.32;;;12.60;99.90;;;;;;6286566;22;20053;-76
2022/10/25 03:37:51;;;;;;;40.47;14.38;;;12.50;99.90;;;;;;6339756;22;20017;-78
2022/10/25 03:40:18;;;;;;;40.70;15.77;;;12.50;99.90;;;;;;6340014;22;20011;-77
2022/10/25 03:42:44;;;;;;;35.05;13.57;;;12.50;99.90;;;;;;6311867;22;20022;-78
2022/10/25 03:45:10;;;;;;;36.67;13.95;;;12.50;99.90;;;;;;6286235;22;20010;-81
2022/10/25 03:47:36;;;;;;;38.65;13.65;;;12.60;99.90;;;;;;6312077;22;20046;-78
2022/10/25 03:50:02;;;;;;;38.67;13.90;;;12.50;99.90;;;;;;6312093;22;20037;-78
2022/10/25 03:52:27;;;;;;;37.75;15.35;;;12.60;99.90;;;;;;6311751;22;20346;-81
2022/10/25 03:54:53;;;;;;;37.42;14.82;;;12.50;99.90;;;;;;6339752;22;20014;-80
2022/10/25 03:57:19;;;;;;;38.47;14.38;;;12.50;99.90;;;;;;6312242;22;20010;-80
2022/10/25 03:59:44;;;;;;;41.38;14.35;;;12.50;99.90;;;;;;6312210;22;20007;-81
2022/10/25 04:02:11;;;;;;;35.30;13.63;;;12.50;99.90;;;;;;6311865;22;20007;-77
2022/10/25 04:04:36;;;;;;;44.17;14.52;;;12.50;99.90;;;;;;6339662;22;20068;-77
2022/10/25 04:07:03;;;;;;;42.58;14.68;;;12.50;99.90;;;;;;6286227;22;20014;-80
2022/10/25 04:09:28;;;;;;;38.63;13.50;;;12.50;99.90;;;;;;6312191;22;20014;-83
2022/10/25 04:11:54;;;;;;;50.58;15.27;;;12.50;99.90;;;;;;6312816;22;20316;-82
2022/10/25 04:14:20;;;;;;;50.03;14.82;;;12.50;99.90;;;;;;6312839;22;20312;-79
2022/10/25 04:16:48;;;;;;;39.05;14.18;;;12.50;99.90;;;;;;6311825;22;20102;-78
2022/10/25 04:19:13;;;;;;;33.28;13.68;;;12.50;99.90;;;;;;6311737;22;20011;-83
2022/10/25 04:21:39;;;;;;;39.58;13.70;;;12.50;99.90;;;;;;6311917;22;20018;-80
2022/10/25 04:24:05;;;;;;;34.53;14.27;;;12.50;99.90;;;;;;6339831;22;20007;-79
2022/10/25 04:26:33;;;;;;;41.47;14.23;;;12.60;99.90;;;;;;6285736;22;20042;-79
2022/10/25 04:28:59;;;;;;;36.45;14.38;;;12.60;99.90;;;;;;6285725;22;20344;-80
2022/10/25 04:31:25;;;;;;;36.75;14.13;;;12.60;99.90;;;;;;6311617;22;20015;-79
2022/10/25 04:33:52;;;;;;;44.22;14.60;;;12.60;99.90;;;;;;6311682;22;20049;-80
2022/10/25 04:36:19;;;;;;;38.95;14.70;;;12.60;99.90;;;;;;6312290;22;20060;-79
2022/10/25 04:38:49;;;;;;;37.28;13.80;;;12.60;99.90;;;;;;6311695;22;20501;-81
2022/10/25 04:41:14;;;;;;;41.20;14.43;;;12.60;99.90;;;;;;6311710;22;20018;-79
2022/10/25 04:43:40;;;;;;;38.22;13.68;;;12.70;99.90;;;;;;6311992;22;20014;-78
2022/10/25 04:46:06;;;;;;;39.55;14.73;;;12.70;99.90;;;;;;6340146;22;20290;-79
2022/10/25 04:48:31;;;;;;;42.70;14.35;;;12.70;99.90;;;;;;6311660;22;20010;-81
2022/10/25 04:51:00;;;;;;;44.58;14.95;;;12.70;99.90;;;;;;6311298;22;20010;-82
2022/10/25 04:53:26;;;;;;;45.38;16.13;;;12.70;99.90;;;;;;6311210;22;20042;-79
2022/10/25 04:56:00;;;;;;;45.50;15.70;;;12.70;99.90;;;;;;6311635;22;20021;-82
2022/10/25 04:58:26;;;;;;;44.35;13.77;;;12.70;99.90;;;;;;6311808;22;20077;-77
2022/10/25 05:00:53;;;;;;;35.28;13.88;;;12.70;99.90;;;;;;6311171;22;20078;-79
2022/10/25 05:03:19;;;;;;;38.13;14.15;;;12.70;99.90;;;;;;6311890;22;20392;-80
2022/10/25 05:05:45;;;;;;;37.40;12.68;;;12.70;99.90;;;;;;6312966;22;20046;-82
2022/10/25 05:08:11;;;;;;;38.55;13.38;;;12.70;99.90;;;;;;6313156;22;20026;-79
2022/10/25 05:10:37;;;;;;;32.72;13.50;;;12.70;99.90;;;;;;6339038;22;20007;-79
2022/10/25 05:13:02;;;;;;;40.42;14.07;;;12.70;99.90;;;;;;6312169;22;20099;-81
2022/10/25 05:15:29;;;;;;;36.92;12.98;;;12.60;99.90;;;;;;6286759;22;20336;-78
2022/10/25 05:17:58;;;;;;;33.72;11.57;;;12.60;99.90;;;;;;6312182;22;20011;-81
2022/10/25 05:20:24;;;;;;;40.35;12.90;;;12.60;99.90;;;;;;6340107;22;20003;-80
2022/10/25 05:22:50;;;;;;;28.50;12.00;;;12.60;99.90;;;;;;6312620;22;20539;-80
2022/10/25 05:25:15;;;;;;;40.38;12.35;;;12.60;99.90;;;;;;6312583;22;20451;-80
2022/10/25 05:27:41;;;;;;;32.03;11.40;;;12.60;99.90;;;;;;6312552;22;20021;-82
2022/10/25 05:30:07;;;;;;;33.83;11.50;;;12.50;99.90;;;;;;6287068;22;20425;-81
2022/10/25 05:32:33;;;;;;;32.30;9.95;;;12.50;99.90;;;;;;6312439;22;20011;-78
2022/10/25 05:34:58;;;;;;;30.95;11.63;;;12.50;99.90;;;;;;6312215;22;20015;-78
2022/10/25 05:37:24;;;;;;;35.03;11.18;;;12.50;99.90;;;;;;6339739;22;20466;-77
2022/10/25 05:39:50;;;;;;;35.83;11.20;;;12.50;99.90;;;;;;6311958;22;20478;-77
2022/10/25 05:42:15;;;;;;;27.58;9.80;;;12.50;99.90;;;;;;6311021;22;20098;-78
2022/10/25 05:44:41;;;;;;;32.78;10.52;;;12.50;99.90;;;;;;6338685;22;20010;-80
2022/10/25 05:47:07;;;;;;;29.77;10.20;;;12.40;99.90;;;;;;6311746;22;20467;-77
2022/10/25 05:49:38;;;;;;;30.27;8.70;;;12.40;99.90;;;;;;6339794;22;20081;-78
2022/10/25 05:52:07;;;;;;;29.67;8.95;;;12.40;99.90;;;;;;6339626;22;20064;-77
2022/10/25 05:54:33;;;;;;;24.13;8.82;;;12.40;99.90;;;;;;6339429;22;20007;-76
2022/10/25 05:56:58;;;;;;;22.45;8.02;;;12.40;99.90;;;;;;6311698;22;20102;-79
2022/10/25 05:59:24;;;;;;;25.33;8.57;;;12.50;99.90;;;;;;6311706;22;20011;-80
2022/10/25 06:01:50;;;;;;;28.30;8.35;;;12.50;99.90;;;;;;6311305;22;20015;-81
2022/10/25 06:04:16;;;;;;;21.95;8.07;;;12.50;99.90;;;;;;6311499;22;20050;-76
2022/10/25 06:06:45;;;;;;;24.08;8.50;;;12.50;99.90;;;;;;6311562;22;20340;-77
2022/10/25 06:09:11;;;;;;;28.80;8.40;;;12.50;99.90;;;;;;6339313;22;20082;-77
2022/10/25 06:11:37;;;;;;;24.30;8.50;;;12.50;99.90;;;;;;6312648;22;20064;-79
2022/10/25 06:14:04;;;;;;;23.73;8.60;;;12.50;99.90;;;;;;6312404;22;20011;-79
2022/10/25 06:16:29;;;;;;;29.05;8.68;;;12.40;99.90;;;;;;6312820;22;20053;-76
2022/10/25 06:18:55;;;;;;;31.38;9.00;;;12.40;99.90;;;;;;6287173;22;20363;-76
2022/10/25 06:21:26;;;;;;;25.33;8.30;;;12.40;99.90;;;;;;6312579;22;20011;-76
2022/10/25 06:23:53;;;;;;;23.15;8.25;;;12.40;99.90;;;;;;6313045;22;20098;-79
2022/10/25 06:26:24;;;;;;;28.55;10.02;;;12.40;99.90;;;;;;6312288;22;20014;-75
2022/10/25 06:28:55;;;;;;;26.80;9.98;;;12.40;99.90;;;;;;6312306;22;20370;-79
2022/10/25 06:31:21;;;;;;;32.67;9.35;;;12.40;99.90;;;;;;6312126;22;20049;-77
2022/10/25 06:33:47;;;;;;;31.83;9.43;;;12.40;99.90;;;;;;6312169;22;20071;-75
2022/10/25 06:36:21;;;;;;;27.13;8.90;;;12.40;99.90;;;;;;6312566;22;20046;-79
2022/10/25 06:38:48;;;;;;;42.57;10.63;;;12.40;99.90;;;;;;6312671;22;20011;-79
2022/10/25 06:41:16;;;;;;;33.72;9.23;;;12.30;99.90;;;;;;6340147;22;20014;-76
2022/10/25 06:43:42;;;;;;;34.65;10.38;;;12.40;99.90;;;;;;6312431;22;20011;-77
2022/10/25 06:46:10;;;;;;;34.80;11.43;;;12.40;99.90;;;;;;6312510;22;20018;-78
2022/10/25 06:48:35;;;;;;;31.70;11.50;;;12.30;99.90;;;;;;6312559;22;20094;-77
2022/10/25 06:51:03;;;;;;;32.22;9.95;;;12.40;99.90;;;;;;6312312;22;20053;-77
2022/10/25 06:53:29;;;;;;;27.13;10.40;;;12.30;99.90;;;;;;6312241;22;20007;-77
2022/10/25 06:55:59;;;;;;;40.50;11.77;;;12.30;99.90;;;;;;6312392;22;20021;-74
2022/10/25 06:58:25;;;;;;;36.25;11.20;;;12.30;99.90;;;;;;6312095;22;20339;-77
2022/10/25 07:00:51;;;;;;;40.67;11.57;;;12.40;99.90;;;;;;6311591;22;20011;-76
2022/10/25 07:03:16;;;;;;;32.15;11.90;;;12.40;99.90;;;;;;6312294;22;20018;-80
2022/10/25 07:05:42;;;;;;;39.72;10.48;;;12.40;99.90;;;;;;6312250;22;20015;-77
2022/10/25 07:08:08;;;;;;;39.92;10.98;;;12.40;99.90;;;;;;6311973;22;20147;-78
2022/10/25 07:10:33;;;;;;;35.92;11.40;;;12.40;99.90;;;;;;6339836;22;20022;-76
2022/10/25 07:12:59;;;;;;;45.35;12.07;;;12.40;99.90;;;;;;6311977;22;20094;-77
2022/10/25 07:15:24;;;;;;;40.80;11.68;;;12.50;99.90;;;;;;6339720;22;20512;-77
2022/10/25 07:17:53;;;;;;;38.15;10.73;;;12.50;99.90;;;;;;6312205;22;20010;-75
2022/10/25 07:20:18;;;;;;;37.05;11.38;;;12.50;99.90;;;;;;6311803;22;20014;-77
2022/10/25 07:22:45;;;;;;;35.88;11.27;;;12.50;99.90;;;;;;6339335;22;20436;-75
2022/10/25 07:25:10;;;;;;;41.97;10.68;;;12.50;99.90;;;;;;6311652;22;20447;-78
2022/10/25 07:27:36;;;;;;;31.83;11.00;;;12.50;99.90;;;;;;6311931;22;20015;-77
2022/10/25 07:30:02;;;;;;;36.67;10.60;;;12.50;99.90;;;;;;6312163;22;20018;-77
2022/10/25 07:32:27;;;;;;;35.53;10.75;;;12.60;99.90;;;;;;6311889;22;20395;-76
2022/10/25 07:34:53;;;;;;;34.38;10.45;;;12.60;99.90;;;;;;6338499;22;20443;-79
2022/10/25 07:37:19;;;;;;;36.83;11.35;;;12.70;99.90;;;;;;6311512;22;20010;-79
2022/10/25 07:39:44;;;;;;;42.92;11.25;;;12.70;99.90;;;;;;6338538;22;20010;-77
2022/10/25 07:42:10;;;;;;;34.17;11.85;;;12.80;99.90;;;;;;6311173;22;20017;-78
2022/10/25 07:44:35;;;;;;;31.95;12.30;;;12.80;99.90;;;;;;6311352;22;20336;-78
2022/10/25 07:47:01;;;;;;;46.13;12.48;;;12.80;99.90;;;;;;6312704;22;20018;-77
2022/10/25 07:49:27;;;;;;;40.65;12.50;;;12.80;99.90;;;;;;6343335;22;20102;-78
2022/10/25 07:51:52;;;;;;;42.08;13.38;;;12.80;99.90;;;;;;6314827;22;20340;-79
2022/10/25 07:54:18;;;;;;;35.08;13.15;;;12.90;99.90;;;;;;6286027;22;20460;-77
2022/10/25 07:56:43;;;;;;;39.40;13.02;;;12.90;99.90;;;;;;6310096;22;20025;-79
2022/10/25 07:59:09;;;;;;;39.83;13.68;;;12.90;99.90;;;;;;6311310;22;20110;-79
2022/10/25 08:01:35;;;;;;;46.38;14.50;;;12.90;99.90;;;;;;6311425;22;20317;-78
2022/10/25 08:04:00;;;;;;;51.20;13.63;;;12.90;99.90;;;;;;6310906;22;20440;-76
2022/10/25 08:06:26;;;;;;;45.40;13.32;;;13.00;99.90;;;;;;6282908;22;20053;-78
2022/10/25 08:08:52;;;;;;;43.85;13.80;;;13.00;99.90;;;;;;6339006;22;20077;-78
2022/10/25 08:11:18;;;;;;;39.03;13.50;;;13.00;99.90;;;;;;6311259;22;20007;-79
2022/10/25 08:13:47;;;;;;;34.53;14.10;;;13.10;99.90;;;;;;6311464;22;20060;-77
2022/10/25 08:16:13;;;;;;;40.50;14.48;;;13.10;99.90;;;;;;6311469;22;20050;-76
2022/10/25 08:18:38;;;;;;;37.63;15.02;;;13.10;99.90;;;;;;6339495;22;20011;-78
2022/10/25 08:21:05;;;;;;;35.53;14.65;;;13.10;99.90;;;;;;6312000;22;20470;-77
2022/10/25 08:23:31;;;;;;;35.97;14.93;;;13.20;99.90;;;;;;6339525;22;20015;-79
2022/10/25 08:25:57;;;;;;;39.60;15.52;;;13.30;99.90;;;;;;6311327;22;20019;-80
2022/10/25 08:28:22;;;;;;;48.65;15.95;;;13.30;99.90;;;;;;6311331;22;20033;-78
2022/10/25 08:30:48;;;;;;;37.50;15.05;;;13.30;99.90;;;;;;6311260;22;20093;-78
2022/10/25 08:33:14;;;;;;;38.70;15.77;;;13.40;99.90;;;;;;6338983;22;20003;-75
2022/10/25 08:35:39;;;;;;;40.95;14.60;;;13.40;99.90;;;;;;6311695;22;20011;-80
2022/10/25 08:38:05;;;;;;;39.20;14.63;;;13.40;99.90;;;;;;6312829;22;20313;-82
2022/10/25 08:40:49;;;;;;;38.28;13.23;;;13.50;99.90;;;;;;6313190;22;20436;-77
2022/10/25 08:43:52;;;;;;;36.70;15.05;;;13.50;99.90;;;;;;6313118;22;20014;-78
2022/10/25 08:46:39;;;;;;;41.25;13.07;;;13.50;99.90;;;;;;6313397;22;20006;-77
2022/10/25 08:49:31;;;;;;;34.97;14.02;;;13.60;99.90;;;;;;6313291;22;20336;-79
2022/10/25 08:51:58;;;;;;;35.33;14.57;;;13.70;99.90;;;;;;6313117;22;20019;-78
2022/10/25 08:54:29;;;;;;;36.45;13.23;;;13.70;99.90;;;;;;6340923;22;20357;-77
2022/10/25 08:57:24;;;;;;;34.75;13.25;;;13.80;99.90;;;;;;6340873;22;20042;-76
2022/10/25 08:59:53;;;;;;;39.33;13.38;;;13.80;99.90;;;;;;6313222;22;20042;-80
2022/10/25 09:02:49;;;;;;;29.30;13.57;;;13.80;99.90;;;;;;6312965;22;20086;-76
2022/10/25 09:05:37;;;;;;;39.80;12.25;;;13.90;99.90;;;;;;6307308;22;20011;-76
2022/10/25 09:08:32;;;;;;;30.27;11.85;;;14.00;99.90;;;;;;6312898;22;20432;-77
2022/10/25 09:11:24;;;;;;;33.95;12.70;;;14.00;99.90;;;;;;6255780;22;20007;-77
2022/10/25 09:13:53;;;;;;;27.90;11.13;;;14.10;99.90;;;;;;6340374;22;20019;-78
2022/10/25 09:16:42;;;;;;;22.77;10.18;;;14.30;99.90;;;;;;6312924;22;20042;-80
2022/10/25 09:19:32;;;;;;;25.13;10.45;;;14.30;99.90;;;;;;6313054;22;20099;-77
2022/10/25 09:22:04;;;;;;;29.67;10.38;;;14.40;99.90;;;;;;6286834;22;20014;-77
2022/10/25 09:24:44;;;;;;;26.20;10.10;;;14.40;99.90;;;;;;6313126;22;20504;-78
2022/10/25 09:27:18;;;;;;;31.70;11.05;;;14.40;99.90;;;;;;6312970;22;20095;-79
2022/10/25 09:30:03;;;;;;;26.10;10.52;;;14.50;99.90;;;;;;6287237;22;20049;-78
2022/10/25 09:32:39;;;;;;;30.35;9.60;;;14.50;99.90;;;;;;6313050;22;20015;-77
2022/10/25 09:35:14;;;;;;;30.50;10.10;;;14.50;99.90;;;;;;6313050;22;20442;-79
2022/10/25 09:37:48;;;;;;;24.25;8.60;;;14.50;99.90;;;;;;6312844;22;20006;-78
2022/10/25 09:40:19;;;;;;;27.40;9.02;;;14.40;99.90;;;;;;6314126;22;20038;-76
2022/10/25 09:42:52;;;;;;;23.67;8.45;;;14.40;99.90;;;;;;6312820;22;20022;-80
2022/10/25 09:45:24;;;;;;;24.88;8.38;;;14.40;99.90;;;;;;6340476;22;20436;-78
2022/10/25 09:48:06;;;;;;;19.88;8.00;;;14.40;99.90;;;;;;6313169;22;20014;-78
2022/10/25 09:50:50;;;;;;;21.95;7.70;;;14.40;99.90;;;;;;6313365;22;20047;-75
2022/10/25 09:53:17;;;;;;;24.25;7.68;;;14.50;99.90;;;;;;6341179;22;20007;-77
2022/10/25 09:56:01;;;;;;;25.73;9.20;;;14.40;99.90;;;;;;6312804;22;20022;-79
2022/10/25 09:58:33;;;;;;;25.95;8.85;;;14.40;99.90;;;;;;6312734;22;20015;-78
2022/10/25 10:01:03;;;;;;;23.67;8.43;;;14.40;99.90;;;;;;6340339;22;20013;-78
2022/10/25 10:03:31;;;;;;;19.50;7.85;;;14.50;99.90;;;;;;6312824;22;20085;-79
2022/10/25 10:06:14;;;;;;;18.48;8.50;;;14.50;99.90;;;;;;6312661;22;20025;-78
2022/10/25 10:08:52;;;;;;;18.33;7.47;;;14.50;99.90;;;;;;6312506;22;20015;-77
2022/10/25 10:11:19;;;;;;;23.08;7.75;;;14.60;99.90;;;;;;6312592;22;20096;-76
2022/10/25 10:14:25;;;;;;;22.48;8.43;;;14.80;99.90;;;;;;6312217;22;20015;-79
2022/10/25 10:16:53;;;;;;;;;;;15.00;99.90;;;;;;6297172;22;20015;-76
2022/10/25 10:19:22;;;;;;;18.23;8.25;;;15.10;99.90;;;;;;6339837;22;19960;-79
2022/10/25 10:21:54;;;;;;;23.23;8.52;;;15.30;99.90;;;;;;6312793;22;20018;-76
2022/10/25 10:24:26;;;;;;;25.75;9.40;;;15.30;99.90;;;;;;6312225;22;20014;-75
2022/10/25 10:26:56;;;;;;;21.83;8.38;;;15.40;99.90;;;;;;6312488;22;20026;-76
2022/10/25 10:29:27;;;;;;;16.65;7.78;;;15.40;99.90;;;;;;6286798;22;20018;-78
2022/10/25 10:31:58;;;;;;;18.23;8.32;;;15.30;99.90;;;;;;6312077;22;20037;-76
2022/10/25 10:34:56;;;;;;;21.00;7.43;;;15.20;99.90;;;;;;6312034;22;20393;-82
2022/10/25 10:37:30;;;;;;;16.42;7.15;;;15.20;99.90;;;;;;6244875;22;20018;-78
2022/10/25 10:40:01;;;;;;;18.75;7.72;;;15.00;99.90;;;;;;6339716;22;20011;-76
2022/10/25 10:42:33;;;;;;;27.10;7.78;;;15.00;99.90;;;;;;6340115;22;20168;-76
2022/10/25 10:45:08;;;;;;;19.25;8.95;;;15.00;99.90;;;;;;6286558;22;20010;-78
2022/10/25 10:47:47;;;;;;;19.88;8.18;;;15.00;99.90;;;;;;6340802;22;20290;-77
2022/10/25 10:50:22;;;;;;;24.83;7.75;;;15.00;99.90;;;;;;6312499;22;20011;-78
2022/10/25 10:53:15;;;;;;;20.70;7.07;;;15.00;99.90;;;;;;6311945;22;20019;-78
2022/10/25 10:55:55;;;;;;;15.00;6.50;;;15.10;99.90;;;;;;6312154;22;20054;-78
2022/10/25 10:58:38;;;;;;;15.48;6.85;;;15.20;99.90;;;;;;6313122;22;20014;-79
2022/10/25 11:01:09;;;;;;;16.85;6.65;;;15.30;99.90;;;;;;6311632;22;20017;-78
2022/10/25 11:03:39;;;;;;;17.92;7.78;;;15.40;99.90;;;;;;6311829;22;20089;-79
2022/10/25 11:06:06;;;;;;;20.67;6.57;;;15.40;99.90;;;;;;6312443;22;20071;-79
2022/10/25 11:08:32;;;;;;;14.30;6.25;;;15.40;99.90;;;;;;6311850;22;20334;-77
2022/10/25 11:11:18;;;;;;;15.45;6.45;;;15.50;99.90;;;;;;6311691;22;20050;-77
2022/10/25 11:13:54;;;;;;;17.63;6.40;;;15.60;99.90;;;;;;6311753;22;20049;-79
2022/10/25 11:16:41;;;;;;;15.88;5.47;;;15.70;99.90;;;;;;6311840;22;20022;-77
2022/10/25 11:19:24;;;;;;;18.58;5.95;;;15.80;99.90;;;;;;6312017;22;20011;-79
2022/10/25 11:22:03;;;;;;;16.75;5.70;;;15.80;99.90;;;;;;6285541;22;20010;-76
2022/10/25 11:24:43;;;;;;;17.13;5.82;;;15.90;99.90;;;;;;6311683;22;20023;-75
2022/10/25 11:27:33;;;;;;;8.73;4.05;;;15.90;99.90;;;;;;6311107;22;20021;-75
2022/10/25 11:30:19;;;;;;;12.13;4.60;;;15.90;99.90;;;;;;6285756;22;20014;-77
2022/10/25 11:33:18;;;;;;;15.73;4.47;;;15.90;99.90;;;;;;6311676;22;20115;-78
2022/10/25 11:36:02;;;;;;;16.17;5.30;;;15.80;99.90;;;;;;6312481;22;20022;-77
2022/10/25 11:38:45;;;;;;;16.40;5.13;;;15.90;99.90;;;;;;6339342;22;20015;-77
2022/10/25 11:41:36;;;;;;;13.57;5.30;;;16.00;99.90;;;;;;6286127;22;20014;-77
2022/10/25 11:44:08;;;;;;;13.18;5.03;;;15.90;99.90;;;;;;6311569;22;20010;-76
2022/10/25 11:46:55;;;;;;;18.95;6.15;;;16.00;99.90;;;;;;6285682;22;20015;-74
2022/10/25 11:49:43;;;;;;;11.65;4.20;;;16.00;99.90;;;;;;6311545;22;20042;-76
2022/10/25 11:52:17;;;;;;;11.82;4.50;;;15.90;99.90;;;;;;6311936;22;20067;-76
2022/10/25 11:54:42;;;;;;;15.35;5.70;;;15.80;99.90;;;;;;6339260;22;20015;-74
2022/10/25 11:57:27;;;;;;;12.27;5.43;;;15.70;99.90;;;;;;6311569;22;20401;-77
2022/10/25 12:00:17;;;;;;;10.60;4.75;;;15.70;99.90;;;;;;6311298;22;20059;-77
2022/10/25 12:03:01;;;;;;;16.10;5.00;;;15.80;99.90;;;;;;6311391;22;20018;-79
2022/10/25 12:05:50;;;;;;;10.02;4.90;;;15.70;99.90;;;;;;6311526;22;20018;-78
2022/10/25 12:08:25;;;;;;;7.55;4.55;;;15.70;99.90;;;;;;6339290;22;20056;-79
2022/10/25 12:11:06;;;;;;;13.27;4.82;;;15.80;99.90;;;;;;6311072;22;20011;-78
2022/10/25 12:13:39;;;;;;;14.05;4.68;;;15.90;99.90;;;;;;6313540;22;20007;-79
2022/10/25 12:16:10;;;;;;;16.45;6.07;;;15.90;99.90;;;;;;6313532;22;20019;-76
2022/10/25 12:18:40;;;;;;;20.75;5.32;;;16.00;99.90;;;;;;6341058;22;20082;-78
2022/10/25 12:21:09;;;;;;;11.85;4.57;;;16.00;99.90;;;;;;6313525;22;20011;-74
2022/10/25 12:23:42;;;;;;;10.02;4.55;;;16.10;99.90;;;;;;6313546;22;20006;-80
2022/10/25 12:26:34;;;;;;;13.90;5.13;;;16.00;99.90;;;;;;6313681;22;20014;-77
2022/10/25 12:29:03;;;;;;;14.35;5.40;;;15.90;99.90;;;;;;6340841;22;20015;-76
2022/10/25 12:31:36;;;;;;;13.90;5.15;;;15.80;99.90;;;;;;6313469;22;20047;-78
2022/10/25 12:34:30;;;;;;;13.38;5.80;;;15.80;99.90;;;;;;6312999;22;20010;-79
2022/10/25 12:37:03;;;;;;;15.55;5.45;;;15.80;99.90;;;;;;6313127;22;20014;-77
2022/10/25 12:39:40;;;;;;;16.58;5.43;;;15.80;99.90;;;;;;6313302;22;20010;-78
2022/10/25 12:42:37;;;;;;;12.98;5.32;;;15.80;99.90;;;;;;6313278;22;20467;-76
2022/10/25 12:45:02;;;;;;;12.13;5.50;;;16.00;99.90;;;;;;6312456;22;20014;-76
2022/10/25 12:47:53;;;;;;;15.75;5.40;;;16.20;99.90;;;;;;6340786;22;20006;-79
2022/10/25 12:50:39;;;;;;;14.35;5.38;;;16.40;99.90;;;;;;6313226;22;20007;-76
2022/10/25 12:53:23;;;;;;;13.23;5.28;;;16.50;99.90;;;;;;6287382;22;20086;-78
2022/10/25 12:55:55;;;;;;;14.23;4.85;;;16.50;99.90;;;;;;6313324;22;20022;-76
2022/10/25 12:58:27;;;;;;;12.55;5.28;;;16.50;99.90;;;;;;6287662;22;20048;-75
2022/10/25 13:01:35;;;;;;;17.45;5.25;;;16.50;99.90;;;;;;6312827;22;20024;-76
2022/10/25 13:04:09;;;;;;;12.15;4.97;;;16.50;99.90;;;;;;6313164;22;20010;-79
2022/10/25 13:06:37;;;;;;;8.70;4.93;;;16.70;99.90;;;;;;6341467;22;20013;-76
2022/10/25 13:09:15;;;;;;;16.60;5.40;;;16.70;99.90;;;;;;6313117;22;20416;-80
2022/10/25 13:11:54;;;;;;;12.23;4.80;;;16.60;99.90;;;;;;6312958;22;20011;-78
2022/10/25 13:14:28;;;;;;;13.35;5.03;;;16.50;99.90;;;;;;6340830;22;20014;-77
2022/10/25 13:17:16;;;;;;;10.05;4.75;;;16.40;99.90;;;;;;6316385;22;20479;-77
2022/10/25 13:19:45;;;;;;;11.68;4.70;;;16.60;99.90;;;;;;6317890;22;20431;-76
2022/10/25 13:22:29;;;;;;;11.85;4.85;;;16.70;99.90;;;;;;6341868;22;20029;-77
2022/10/25 13:25:20;;;;;;;11.35;4.78;;;16.60;99.90;;;;;;6286862;22;20085;-77
2022/10/25 13:28:14;;;;;;;11.27;4.57;;;16.50;99.90;;;;;;6248769;22;20525;-77
2022/10/25 13:30:40;;;;;;;13.77;4.60;;;16.40;99.90;;;;;;6287105;22;20026;-79
2022/10/25 13:33:20;;;;;;;10.85;4.38;;;16.30;99.90;;;;;;6313008;22;20049;-77
2022/10/25 13:35:57;;;;;;;14.45;5.28;;;16.20;99.90;;;;;;6287567;22;20045;-77
2022/10/25 13:38:27;;;;;;;14.32;5.22;;;16.20;99.90;;;;;;6312416;22;20095;-79
2022/10/25 13:41:16;;;;;;;12.52;4.72;;;16.20;99.90;;;;;;6312412;22;20048;-76
2022/10/25 13:44:17;;;;;;;14.27;5.07;;;16.20;99.90;;;;;;6312546;22;20011;-77
2022/10/25 13:46:46;;;;;;;10.88;5.30;;;16.20;99.90;;;;;;6312486;22;20014;-75
2022/10/25 13:49:34;;;;;;;9.82;4.80;;;16.30;99.90;;;;;;6312313;22;20350;-77
2022/10/25 13:52:26;;;;;;;10.65;4.78;;;16.30;99.90;;;;;;6312281;22;20116;-76
2022/10/25 13:54:56;;;;;;;14.20;4.90;;;16.30;99.90;;;;;;6312248;22;20011;-79
2022/10/25 13:57:54;;;;;;;9.85;4.55;;;16.30;99.90;;;;;;6287063;22;20011;-75
2022/10/25 14:00:25;;;;;;;14.70;4.72;;;16.30;99.90;;;;;;6326687;22;20447;-78
2022/10/25 14:03:11;;;;;;;11.70;5.53;;;16.30;99.90;;;;;;6340524;22;20003;-78
2022/10/25 14:05:52;;;;;;;;;;;16.50;99.90;;;;;;6286996;22;20011;-79
2022/10/25 14:08:39;;;;;;;10.95;3.80;;;16.50;99.90;;;;;;6340951;22;20266;-78
2022/10/25 14:11:46;;;;;;;10.07;4.05;;;16.60;99.90;;;;;;6340518;22;20038;-76
2022/10/25 14:14:27;;;;;;;12.07;4.20;;;16.60;99.90;;;;;;6164253;23;20009;-75
2022/10/25 14:17:08;;;;;;;14.75;4.30;;;16.60;99.90;;;;;;6189457;23;20074;-77
2022/10/25 14:19:41;;;;;;;10.15;4.22;;;16.50;99.90;;;;;;6272290;22;20014;-76
2022/10/25 14:22:16;;;;;;;10.00;4.28;;;16.50;99.90;;;;;;6340919;22;20017;-80
2022/10/25 14:24:46;;;;;;;9.55;3.88;;;16.40;99.90;;;;;;6312304;22;20010;-78
2022/10/25 14:27:33;;;;;;;14.75;4.85;;;16.30;99.90;;;;;;6339783;22;20440;-78
2022/10/25 14:30:22;;;;;;;12.25;4.32;;;16.30;99.90;;;;;;6339956;22;20007;-75
2022/10/25 14:32:56;;;;;;;11.15;3.95;;;16.30;99.90;;;;;;6312087;22;20085;-78
2022/10/25 14:35:32;;;;;;;8.53;3.80;;;16.30;99.90;;;;;;6312376;22;20011;-78
2022/10/25 14:37:58;;;;;;;;;;;16.40;99.90;;;;;;6312933;22;20260;-75
2022/10/25 14:40:29;;;;;;;13.25;3.55;;;16.40;99.90;;;;;;6311991;22;19910;-77
2022/10/25 14:43:19;;;;;;;11.93;3.67;;;16.30;99.90;;;;;;6312052;22;20011;-77
2022/10/25 14:45:58;;;;;;;12.93;3.75;;;16.30;99.90;;;;;;6312019;22;20042;-77
2022/10/25 14:48:23;;;;;;;12.98;3.72;;;16.20;99.90;;;;;;6312131;22;20011;-78
2022/10/25 14:50:50;;;;;;;11.75;3.50;;;16.20;99.90;;;;;;6311703;22;20017;-75
2022/10/25 14:53:17;;;;;;;10.85;3.55;;;16.10;99.90;;;;;;6312173;22;20011;-78
2022/10/25 14:56:09;;;;;;;14.82;4.00;;;16.10;99.90;;;;;;6311996;22;20011;-76
2022/10/25 14:58:41;;;;;;;10.55;3.58;;;16.00;99.90;;;;;;6280252;22;20440;-79
2022/10/25 15:01:11;;;;;;;8.68;3.25;;;16.00;99.90;;;;;;6339549;22;20010;-79
2022/10/25 15:03:42;;;;;;;8.63;3.03;;;16.00;99.90;;;;;;6340203;22;20081;-76
2022/10/25 15:06:08;;;;;;;9.65;3.20;;;16.00;99.90;;;;;;6311870;22;20340;-75
2022/10/25 15:08:37;;;;;;;9.38;3.55;;;16.00;99.90;;;;;;6311559;22;20050;-79
2022/10/25 15:11:17;;;;;;;10.30;3.13;;;16.00;99.90;;;;;;6311472;22;20448;-73
2022/10/25 15:13:52;;;;;;;8.40;3.13;;;16.00;99.90;;;;;;6311818;22;20448;-77
2022/10/25 15:16:39;;;;;;;6.18;2.95;;;15.90;99.90;;;;;;6340213;22;20025;-75
2022/10/25 15:19:05;;;;;;;11.45;2.85;;;16.00;99.90;;;;;;6312179;22;20010;-74
2022/10/25 15:21:48;;;;;;;10.43;3.10;;;15.90;99.90;;;;;;6311997;22;20136;-77
2022/10/25 15:24:21;;;;;;;11.82;3.47;;;15.90;99.90;;;;;;6311801;22;20018;-76
2022/10/25 15:26:50;;;;;;;9.48;3.20;;;15.80;99.90;;;;;;6312110;22;20015;-77
2022/10/25 15:29:48;;;;;;;13.95;3.55;;;15.80;99.90;;;;;;6311454;22;20018;-75
2022/10/25 15:32:16;;;;;;;11.02;3.70;;;15.80;99.90;;;;;;6309004;22;20022;-77
2022/10/25 15:34:45;;;;;;;9.25;3.25;;;15.70;99.90;;;;;;6311876;22;20028;-77
2022/10/25 15:37:12;;;;;;;14.75;4.00;;;15.70;99.90;;;;;;6311282;22;20014;-77
2022/10/25 15:39:39;;;;;;;9.60;3.92;;;15.70;99.90;;;;;;6311299;22;20015;-77
2022/10/25 15:42:04;;;;;;;12.50;3.90;;;15.60;99.90;;;;;;6311137;22;20010;-76
2022/10/25 15:44:30;;;;;;;10.93;3.72;;;15.60;99.90;;;;;;6311100;22;20026;-78
2022/10/25 15:46:56;;;;;;;12.32;3.30;;;15.60;99.90;;;;;;6311389;22;20019;-76
2022/10/25 15:49:21;;;;;;;16.15;4.07;;;15.50;99.90;;;;;;6311418;22;20015;-78
2022/10/25 15:51:47;;;;;;;12.30;4.18;;;15.50;99.90;;;;;;6311484;22;20344;-77
2022/10/25 15:54:19;;;;;;;10.90;3.80;;;15.50;99.90;;;;;;6311278;22;20375;-76
2022/10/25 15:56:45;;;;;;;11.65;3.50;;;15.50;99.90;;;;;;6311770;22;20449;-78
2022/10/25 15:59:11;;;;;;;12.00;3.85;;;15.50;99.90;;;;;;6285331;22;20463;-75
2022/10/25 16:01:41;;;;;;;10.95;3.50;;;15.50;99.90;;;;;;6310692;22;20015;-78